createdAt,value
2023-01-07T00:01:37.128Z,2.60
2023-01-07T00:04:06.192Z,3.13
2023-01-07T00:06:36.019Z,4.22
2023-01-07T00:09:04.045Z,1.75
2023-01-07T00:11:39.382Z,2.00
2023-01-07T00:14:08.351Z,1.90
2023-01-07T00:16:36.353Z,2.63
2023-01-07T00:19:04.573Z,2.00
2023-01-07T00:21:37.851Z,1.77
2023-01-07T00:24:06.212Z,1.65
2023-01-07T00:26:40.483Z,1.40
2023-01-07T00:29:08.126Z,1.13
2023-01-07T00:31:37.304Z,2.30
2023-01-07T00:34:04.587Z,1.35
2023-01-07T00:36:35.735Z,1.20
2023-01-07T00:39:07.045Z,1.00
2023-01-07T00:41:34.016Z,0.93
2023-01-07T00:44:00.635Z,0.82
2023-01-07T00:46:27.198Z,1.25
2023-01-07T00:48:53.744Z,0.82
2023-01-07T00:51:28.213Z,1.20
2023-01-07T00:53:57.415Z,1.73
2023-01-07T00:56:23.983Z,1.58
2023-01-07T00:58:50.505Z,1.45
2023-01-07T01:01:17.139Z,1.80
2023-01-07T01:03:43.737Z,2.28
2023-01-07T01:06:15.621Z,1.60
2023-01-07T01:08:47.319Z,2.20
2023-01-07T01:11:15.455Z,1.65
2023-01-07T01:13:43.309Z,3.22
2023-01-07T01:16:16.282Z,1.40
2023-01-07T01:18:43.984Z,1.40
2023-01-07T01:21:13.210Z,2.53
2023-01-07T01:23:39.883Z,1.30
2023-01-07T01:26:12.542Z,0.90
2023-01-07T01:28:39.118Z,0.82
2023-01-07T01:31:08.257Z,0.80
2023-01-07T01:33:35.328Z,0.80
2023-01-07T01:36:10.558Z,0.80
2023-01-07T01:38:40.785Z,2.45
2023-01-07T01:41:07.728Z,0.63
2023-01-07T01:43:40.163Z,0.60
2023-01-07T01:46:16.170Z,0.60
2023-01-07T01:48:51.427Z,0.90
2023-01-07T01:51:22.194Z,0.95
2023-01-07T01:53:50.794Z,1.10
2023-01-07T01:56:27.625Z,1.20
2023-01-07T01:59:01.483Z,1.13
2023-01-07T02:01:32.450Z,1.65
2023-01-07T02:04:00.955Z,1.38
2023-01-07T02:06:33.458Z,2.60
2023-01-07T02:09:00.235Z,1.33
2023-01-07T02:11:41.671Z,1.63
2023-01-07T02:14:30.384Z,1.60
2023-01-07T02:17:08.875Z,1.63
2023-01-07T02:19:54.116Z,1.40
2023-01-07T02:22:44.686Z,1.92
2023-01-07T02:25:20.963Z,1.88
2023-01-07T02:28:13.664Z,1.55
2023-01-07T02:30:58.518Z,1.92
2023-01-07T02:33:28.048Z,1.58
2023-01-07T02:35:57.453Z,1.70
2023-01-07T02:38:35.363Z,1.85
2023-01-07T02:41:28.933Z,1.58
2023-01-07T02:44:04.866Z,2.60
2023-01-07T02:46:35.773Z,2.58
2023-01-07T02:49:07.852Z,1.50
2023-01-07T02:51:36.806Z,2.03
2023-01-07T02:54:07.239Z,2.03
2023-01-07T02:56:51.737Z,1.55
2023-01-07T02:59:53.487Z,1.75
2023-01-07T03:02:51.529Z,1.73
2023-01-07T03:05:57.479Z,3.45
2023-01-07T03:08:23.876Z,2.05
2023-01-07T03:11:00.401Z,2.00
2023-01-07T03:13:35.875Z,1.90
2023-01-07T03:16:07.586Z,1.70
2023-01-07T03:18:40.239Z,2.00
2023-01-07T03:21:12.646Z,1.92
2023-01-07T03:23:44.676Z,2.85
2023-01-07T03:28:42.703Z,2.63
2023-01-07T03:31:13.877Z,2.67
2023-01-07T03:34:08.478Z,2.47
2023-01-07T03:36:43.028Z,2.40
2023-01-07T03:39:12.302Z,5.72
2023-01-07T03:41:58.622Z,3.65
2023-01-07T03:44:25.384Z,3.00
2023-01-07T03:46:53.029Z,2.60
2023-01-07T03:49:19.578Z,2.20
2023-01-07T03:51:46.645Z,2.50
2023-01-07T03:54:13.116Z,2.80
2023-01-07T03:56:39.592Z,3.92
2023-01-07T03:59:06.065Z,2.40
2023-01-07T04:01:32.717Z,2.58
2023-01-07T04:04:01.223Z,3.83
2023-01-07T04:06:28.848Z,1.83
2023-01-07T04:08:55.354Z,4.60
2023-01-07T04:11:21.899Z,2.20
2023-01-07T04:13:48.371Z,1.92
2023-01-07T04:16:15.005Z,1.98
2023-01-07T04:18:41.516Z,1.75
2023-01-07T04:21:07.965Z,2.15
2023-01-07T04:23:34.587Z,2.60
2023-01-07T04:26:03.753Z,4.10
2023-01-07T04:28:30.410Z,3.50
2023-01-07T04:30:59.042Z,2.67
2023-01-07T04:33:25.867Z,2.75
2023-01-07T04:35:52.404Z,2.80
2023-01-07T04:38:18.908Z,3.28
2023-01-07T04:40:45.409Z,3.83
2023-01-07T04:43:11.916Z,3.30
2023-01-07T04:45:38.350Z,3.00
2023-01-07T04:48:05.091Z,3.13
2023-01-07T04:50:31.632Z,4.25
2023-01-07T04:52:58.155Z,3.45
2023-01-07T04:55:24.630Z,3.35
2023-01-07T04:57:51.091Z,3.88
2023-01-07T05:00:17.727Z,4.22
2023-01-07T05:02:44.208Z,5.10
2023-01-07T05:05:10.811Z,4.13
2023-01-07T05:07:37.343Z,4.05
2023-01-07T05:10:04.328Z,4.60
2023-01-07T05:12:35.150Z,3.92
2023-01-07T05:15:02.670Z,4.10
2023-01-07T05:17:29.172Z,5.60
2023-01-07T05:19:55.707Z,3.78
2023-01-07T05:22:22.190Z,5.38
2023-01-07T05:24:48.650Z,3.47
2023-01-07T05:27:15.194Z,3.65
2023-01-07T05:29:41.644Z,3.45
2023-01-07T05:32:08.120Z,3.60
2023-01-07T05:34:34.573Z,3.97
2023-01-07T05:37:01.058Z,2.90
2023-01-07T05:39:27.546Z,3.78
2023-01-07T05:41:54.057Z,3.15
2023-01-07T05:44:24.012Z,3.25
2023-01-07T05:46:50.585Z,5.05
2023-01-07T05:49:17.092Z,6.75
2023-01-07T05:51:43.655Z,2.80
2023-01-07T05:54:10.377Z,3.25
2023-01-07T05:56:36.824Z,2.90
2023-01-07T05:59:03.431Z,3.10
2023-01-07T06:01:29.942Z,3.78
2023-01-07T06:03:57.790Z,3.10
2023-01-07T06:06:24.374Z,2.72
2023-01-07T06:08:50.880Z,2.92
2023-01-07T06:11:17.440Z,3.22
2023-01-07T06:13:43.937Z,4.35
2023-01-07T06:16:13.502Z,3.00
2023-01-07T06:18:40.045Z,3.67
2023-01-07T06:21:06.540Z,4.30
2023-01-07T06:23:33.101Z,3.20
2023-01-07T06:25:59.618Z,3.25
2023-01-07T06:28:26.258Z,3.92
2023-01-07T06:30:52.832Z,3.03
2023-01-07T06:33:19.505Z,2.83
2023-01-07T06:35:49.668Z,3.67
2023-01-07T06:38:16.135Z,2.83
2023-01-07T06:40:44.569Z,2.67
2023-01-07T06:43:11.085Z,3.15
2023-01-07T06:45:41.331Z,2.53
2023-01-07T06:48:08.195Z,2.92
2023-01-07T06:50:34.681Z,3.10
2023-01-07T06:53:01.175Z,2.53
2023-01-07T06:55:27.713Z,3.38
2023-01-07T06:57:54.179Z,4.75
2023-01-07T07:00:21.378Z,3.45
2023-01-07T07:02:47.905Z,4.53
2023-01-07T07:05:14.457Z,4.20
2023-01-07T07:07:41.038Z,7.00
2023-01-07T07:10:08.603Z,5.55
2023-01-07T07:12:36.191Z,6.50
2023-01-07T07:15:02.777Z,3.08
2023-01-07T07:17:29.322Z,2.60
2023-01-07T07:19:59.011Z,2.67
2023-01-07T07:22:25.559Z,4.00
2023-01-07T07:24:52.084Z,3.95
2023-01-07T07:27:18.626Z,4.30
2023-01-07T07:29:45.121Z,2.70
2023-01-07T07:32:11.605Z,2.75
2023-01-07T07:34:38.103Z,4.15
2023-01-07T07:37:04.597Z,3.22
2023-01-07T07:39:31.104Z,3.15
2023-01-07T07:41:57.548Z,3.58
2023-01-07T07:44:24.126Z,3.88
2023-01-07T07:46:50.614Z,3.25
2023-01-07T07:49:17.129Z,3.25
2023-01-07T07:51:43.631Z,3.63
2023-01-07T07:54:12.575Z,3.58
2023-01-07T07:56:39.081Z,4.30
2023-01-07T07:59:05.612Z,4.03
2023-01-07T08:01:32.161Z,3.30
2023-01-07T08:03:58.862Z,4.28
2023-01-07T08:06:25.346Z,3.80
2023-01-07T08:08:51.812Z,4.53
2023-01-07T08:11:18.322Z,3.67
2023-01-07T08:13:45.211Z,4.00
2023-01-07T08:16:11.761Z,3.47
2023-01-07T08:18:39.912Z,3.85
2023-01-07T08:21:08.291Z,3.80
2023-01-07T08:23:34.882Z,3.90
2023-01-07T08:26:03.049Z,5.10
2023-01-07T08:28:30.835Z,4.00
2023-01-07T08:30:58.127Z,3.70
2023-01-07T08:33:24.736Z,4.85
2023-01-07T08:35:51.225Z,3.97
2023-01-07T08:38:17.748Z,3.78
2023-01-07T08:40:45.425Z,3.92
2023-01-07T08:43:12.450Z,4.85
2023-01-07T08:45:38.888Z,4.25
2023-01-07T08:48:05.756Z,3.90
2023-01-07T08:50:33.443Z,3.65
2023-01-07T08:53:00.349Z,3.35
2023-01-07T08:55:27.041Z,3.60
2023-01-07T08:57:53.545Z,3.88
2023-01-07T09:00:20.600Z,3.90
2023-01-07T09:02:47.080Z,3.22
2023-01-07T09:05:14.134Z,3.30
2023-01-07T09:07:40.862Z,4.78
2023-01-07T09:10:09.807Z,3.47
2023-01-07T09:12:36.577Z,4.07
2023-01-07T09:15:06.390Z,3.50
2023-01-07T09:17:32.829Z,3.38
2023-01-07T09:20:03.190Z,4.20
2023-01-07T09:22:31.554Z,3.47
2023-01-07T09:24:58.095Z,3.67
2023-01-07T09:27:26.665Z,2.97
2023-01-07T09:29:54.474Z,2.92
2023-01-07T09:32:21.441Z,4.38
2023-01-07T09:34:47.886Z,3.97
2023-01-07T09:37:14.457Z,4.60
2023-01-07T09:39:40.897Z,3.35
2023-01-07T09:42:21.584Z,2.42
2023-01-07T09:45:05.139Z,3.33
2023-01-07T09:47:34.858Z,2.70
2023-01-07T09:50:18.562Z,5.57
2023-01-07T09:52:50.498Z,2.30
2023-01-07T09:57:45.981Z,3.45
2023-01-07T10:00:18.511Z,3.78
2023-01-07T10:02:59.890Z,2.90
2023-01-07T10:05:49.896Z,3.67
2023-01-07T10:08:31.878Z,2.50
2023-01-07T10:11:07.797Z,2.05
2023-01-07T10:14:02.620Z,2.58
2023-01-07T10:16:29.102Z,2.30
2023-01-07T10:19:36.310Z,3.53
2023-01-07T10:22:35.049Z,1.90
2023-01-07T10:25:06.859Z,1.80
2023-01-07T10:27:37.321Z,2.20
2023-01-07T10:30:15.310Z,2.20
2023-01-07T10:32:41.834Z,2.00
2023-01-07T10:35:14.675Z,2.17
2023-01-07T10:37:43.414Z,1.58
2023-01-07T10:40:12.844Z,2.22
2023-01-07T10:42:48.286Z,2.17
2023-01-07T10:45:20.711Z,1.50
2023-01-07T10:48:14.979Z,1.55
2023-01-07T10:51:10.599Z,1.83
2023-01-07T10:53:55.654Z,4.75
2023-01-07T10:56:37.800Z,1.70
2023-01-07T11:01:37.313Z,1.60
2023-01-07T11:04:11.137Z,1.60
2023-01-07T11:06:37.570Z,1.95
2023-01-07T11:09:09.191Z,1.88
2023-01-07T11:11:36.701Z,2.50
2023-01-07T11:14:10.247Z,1.15
2023-01-07T11:16:43.636Z,1.48
2023-01-07T11:19:12.312Z,1.10
2023-01-07T11:21:42.993Z,1.20
2023-01-07T11:26:46.751Z,1.17
2023-01-07T11:29:24.023Z,1.10
2023-01-07T11:31:54.573Z,1.60
2023-01-07T11:34:28.431Z,1.30
2023-01-07T11:36:55.000Z,1.00
2023-01-07T11:39:26.759Z,1.10
2023-01-07T11:42:21.859Z,2.88
2023-01-07T11:44:48.416Z,1.00
2023-01-07T11:47:18.428Z,2.58
2023-01-07T11:49:45.954Z,1.27
2023-01-07T11:52:19.739Z,1.83
2023-01-07T11:54:51.811Z,1.55
2023-01-07T12:00:12.790Z,1.40
2023-01-07T12:02:39.487Z,1.35
2023-01-07T12:05:27.021Z,1.90
2023-01-07T12:07:55.045Z,1.67
2023-01-07T12:10:27.870Z,1.25
2023-01-07T12:12:54.790Z,1.58
2023-01-07T12:15:24.383Z,1.80
2023-01-07T12:18:11.430Z,1.77
2023-01-07T12:21:02.641Z,1.67
2023-01-07T12:24:02.987Z,1.90
2023-01-07T12:26:36.685Z,3.58
2023-01-07T12:29:14.037Z,2.00
2023-01-07T12:31:56.106Z,2.55
2023-01-07T12:34:31.511Z,1.90
2023-01-07T12:37:04.584Z,1.40
2023-01-07T12:39:36.333Z,1.23
2023-01-07T12:45:00.976Z,2.33
2023-01-07T12:47:35.918Z,3.80
2023-01-07T12:50:18.003Z,1.10
2023-01-07T12:52:56.306Z,2.08
2023-01-07T12:55:34.646Z,3.00
2023-01-07T12:58:16.289Z,1.77
2023-01-07T13:00:57.836Z,0.80
2023-01-07T13:03:27.212Z,1.73
2023-01-07T13:06:01.675Z,1.33
2023-01-07T13:08:43.443Z,2.75
2023-01-07T13:11:18.434Z,1.40
2023-01-07T13:13:52.801Z,2.05
2023-01-07T13:16:19.299Z,6.40
2023-01-07T13:18:45.894Z,2.05
2023-01-07T13:21:14.474Z,8.85
2023-01-07T13:24:02.839Z,6.20
2023-01-07T13:26:30.876Z,4.60
2023-01-07T13:29:19.006Z,4.38
2023-01-07T13:32:06.950Z,4.40
2023-01-07T13:34:57.668Z,2.35
2023-01-07T13:37:24.110Z,2.88
2023-01-07T13:40:13.556Z,3.22
2023-01-07T13:43:15.028Z,4.25
2023-01-07T13:45:47.538Z,2.97
2023-01-07T13:48:21.665Z,2.90
2023-01-07T13:51:01.782Z,2.05
2023-01-07T13:53:32.914Z,1.55
2023-01-07T13:56:17.501Z,2.63
2023-01-07T13:58:48.920Z,5.03
2023-01-07T14:01:23.383Z,3.10
2023-01-07T14:03:53.168Z,2.53
2023-01-07T14:06:23.762Z,4.88
2023-01-07T14:08:59.356Z,3.13
2023-01-07T14:11:42.207Z,2.63
2023-01-07T14:14:30.273Z,4.28
2023-01-07T14:17:27.770Z,2.58
2023-01-07T14:20:12.120Z,3.00
2023-01-07T14:22:48.636Z,1.70
2023-01-07T14:25:42.903Z,2.60
2023-01-07T14:28:31.284Z,1.30
2023-01-07T14:30:58.538Z,1.20
2023-01-07T14:33:40.394Z,1.95
2023-01-07T14:36:09.466Z,1.67
2023-01-07T14:38:35.940Z,1.55
2023-01-07T14:41:16.469Z,1.60
2023-01-07T14:43:45.945Z,3.47
2023-01-07T14:46:24.721Z,1.75
2023-01-07T14:49:03.528Z,3.10
2023-01-07T14:51:51.342Z,1.90
2023-01-07T14:54:30.099Z,3.80
2023-01-07T14:57:09.399Z,2.13
2023-01-07T14:59:48.535Z,3.22
2023-01-07T15:02:52.303Z,6.55
2023-01-07T15:05:29.425Z,1.63
2023-01-07T15:08:20.458Z,3.10
2023-01-07T15:11:09.563Z,2.70
2023-01-07T15:14:02.368Z,2.35
2023-01-07T15:16:32.771Z,2.00
2023-01-07T15:18:59.998Z,2.05
2023-01-07T15:21:59.553Z,2.63
2023-01-07T15:24:38.366Z,2.55
2023-01-07T15:27:31.902Z,2.50
2023-01-07T15:30:26.134Z,1.92
2023-01-07T15:33:05.627Z,3.35
2023-01-07T15:35:38.487Z,3.63
2023-01-07T15:38:23.819Z,4.03
2023-01-07T15:40:50.337Z,2.72
2023-01-07T15:43:23.908Z,2.35
2023-01-07T15:46:05.248Z,2.00
2023-01-07T15:48:31.784Z,3.20
2023-01-07T15:51:00.259Z,3.50
2023-01-07T15:53:29.369Z,3.50
2023-01-07T15:56:01.528Z,2.85
2023-01-07T15:58:34.057Z,1.90
2023-01-07T16:01:02.488Z,2.35
2023-01-07T16:03:30.587Z,6.10
2023-01-07T16:05:59.250Z,5.25
2023-01-07T16:08:33.620Z,2.55
2023-01-07T16:11:05.762Z,2.75
2023-01-07T16:13:32.819Z,4.45
2023-01-07T16:16:03.308Z,3.60
2023-01-07T16:18:33.926Z,3.00
2023-01-07T16:21:05.456Z,2.95
2023-01-07T16:23:34.287Z,3.85
2023-01-07T16:26:06.093Z,6.13
2023-01-07T16:28:47.450Z,3.03
2023-01-07T16:31:17.744Z,4.30
2023-01-07T16:33:45.412Z,2.50
2023-01-07T16:36:16.383Z,4.55
2023-01-07T16:38:44.990Z,5.05
2023-01-07T16:41:25.632Z,3.53
2023-01-07T16:43:59.999Z,2.95
2023-01-07T16:46:33.048Z,7.82
2023-01-07T16:49:08.934Z,3.42
2023-01-07T16:51:40.244Z,6.22
2023-01-07T16:54:25.143Z,3.78
2023-01-07T16:56:55.883Z,4.22
2023-01-07T16:59:26.239Z,4.22
2023-01-07T17:01:53.068Z,4.57
2023-01-07T17:04:25.278Z,4.55
2023-01-07T17:06:51.800Z,4.97
2023-01-07T17:09:24.202Z,3.67
2023-01-07T17:11:52.953Z,3.80
2023-01-07T17:14:49.710Z,3.10
2023-01-07T17:17:29.475Z,4.70
2023-01-07T17:20:22.207Z,4.47
2023-01-07T17:22:49.894Z,3.13
2023-01-07T17:25:24.594Z,4.50
2023-01-07T17:28:19.087Z,2.90
2023-01-07T17:30:45.597Z,3.05
2023-01-07T17:33:16.616Z,4.03
2023-01-07T17:35:45.022Z,10.15
2023-01-07T17:38:15.798Z,4.70
2023-01-07T17:40:43.356Z,3.67
2023-01-07T17:43:37.696Z,5.82
2023-01-07T17:46:11.190Z,5.40
2023-01-07T17:48:38.670Z,7.18
2023-01-07T17:51:07.070Z,4.55
2023-01-07T17:53:38.978Z,5.57
2023-01-07T17:56:05.817Z,3.75
2023-01-07T17:58:35.102Z,4.43
2023-01-07T18:01:09.218Z,10.48
2023-01-07T18:03:36.119Z,8.18
2023-01-07T18:06:03.052Z,7.28
2023-01-07T18:08:29.563Z,6.78
2023-01-07T18:11:15.451Z,7.30
2023-01-07T18:13:42.228Z,8.27
2023-01-07T18:16:12.446Z,5.57
2023-01-07T18:18:38.949Z,6.60
2023-01-07T18:21:05.642Z,6.07
2023-01-07T18:23:32.083Z,4.38
2023-01-07T18:25:58.594Z,4.07
2023-01-07T18:28:25.046Z,4.40
2023-01-07T18:30:51.619Z,4.78
2023-01-07T18:33:18.092Z,4.90
2023-01-07T18:35:44.564Z,4.13
2023-01-07T18:38:16.090Z,14.13
2023-01-07T18:40:43.454Z,12.50
2023-01-07T18:43:17.985Z,8.38
2023-01-07T18:45:46.023Z,5.60
2023-01-07T18:48:13.837Z,6.10
2023-01-07T18:50:41.540Z,4.15
2023-01-07T18:53:08.115Z,6.82
2023-01-07T18:55:34.549Z,4.78
2023-01-07T18:58:01.044Z,4.18
2023-01-07T19:00:27.691Z,4.00
2023-01-07T19:02:54.357Z,4.45
2023-01-07T19:05:20.824Z,6.80
2023-01-07T19:07:47.359Z,5.90
2023-01-07T19:10:13.821Z,6.65
2023-01-07T19:12:40.377Z,4.82
2023-01-07T19:15:07.457Z,4.85
2023-01-07T19:17:34.081Z,3.60
2023-01-07T19:20:00.544Z,3.55
2023-01-07T19:22:27.014Z,5.15
2023-01-07T19:24:54.602Z,4.70
2023-01-07T19:27:21.042Z,4.90
2023-01-07T19:29:47.501Z,6.40
2023-01-07T19:32:14.040Z,5.03
2023-01-07T19:34:40.793Z,5.00
2023-01-07T19:37:07.351Z,5.38
2023-01-07T19:39:34.345Z,4.25
2023-01-07T19:42:00.841Z,5.95
2023-01-07T19:44:27.372Z,5.88
2023-01-07T19:46:53.821Z,4.97
2023-01-07T19:49:20.409Z,4.90
2023-01-07T19:51:46.868Z,6.75
2023-01-07T19:54:17.122Z,5.40
2023-01-07T19:56:44.010Z,8.90
2023-01-07T19:59:11.038Z,6.90
2023-01-07T20:01:42.056Z,5.88
2023-01-07T20:04:08.845Z,6.00
2023-01-07T20:06:38.891Z,4.45
2023-01-07T20:09:11.252Z,4.63
2023-01-07T20:11:39.350Z,6.45
2023-01-07T20:14:07.469Z,4.05
2023-01-07T20:16:36.429Z,5.13
2023-01-07T20:19:03.101Z,4.47
2023-01-07T20:21:29.611Z,4.82
2023-01-07T20:23:56.652Z,7.28
2023-01-07T20:26:26.688Z,4.78
2023-01-07T20:28:53.167Z,4.25
2023-01-07T20:31:22.019Z,5.00
2023-01-07T20:33:50.429Z,7.93
2023-01-07T20:36:19.677Z,5.10
2023-01-07T20:38:47.320Z,5.22
2023-01-07T20:41:25.630Z,4.53
2023-01-07T20:43:54.841Z,4.07
2023-01-07T20:46:21.896Z,5.45
2023-01-07T20:48:49.043Z,4.38
2023-01-07T20:51:16.207Z,5.20
2023-01-07T20:53:43.865Z,5.40
2023-01-07T20:56:12.562Z,4.05
2023-01-07T20:58:39.742Z,7.20
2023-01-07T21:01:11.789Z,4.55
2023-01-07T21:03:39.273Z,6.22
2023-01-07T21:06:09.678Z,4.93
2023-01-07T21:08:37.242Z,6.07
2023-01-07T21:11:04.096Z,4.93
2023-01-07T21:13:33.529Z,6.53
2023-01-07T21:16:04.598Z,5.53
2023-01-07T21:18:32.387Z,5.40
2023-01-07T21:20:59.337Z,6.50
2023-01-07T21:23:26.515Z,5.80
2023-01-07T21:25:55.772Z,6.13
2023-01-07T21:28:22.289Z,4.75
2023-01-07T21:30:48.884Z,5.90
2023-01-07T21:33:15.654Z,4.72
2023-01-07T21:35:42.338Z,5.18
2023-01-07T21:38:08.935Z,5.32
2023-01-07T21:40:37.096Z,4.60
2023-01-07T21:43:06.426Z,6.35
2023-01-07T21:45:33.170Z,4.72
2023-01-07T21:47:59.708Z,5.25
2023-01-07T21:50:26.248Z,7.43
2023-01-07T21:52:52.711Z,4.82
2023-01-07T21:55:19.200Z,4.93
2023-01-07T21:57:45.738Z,5.10
2023-01-07T22:00:13.010Z,5.10
2023-01-07T22:02:39.549Z,6.90
2023-01-07T22:05:06.609Z,5.72
2023-01-07T22:07:33.140Z,5.75
2023-01-07T22:09:59.582Z,5.45
2023-01-07T22:12:26.327Z,4.75
2023-01-07T22:14:52.796Z,5.10
2023-01-07T22:17:24.505Z,5.13
2023-01-07T22:19:50.994Z,6.72
2023-01-07T22:22:19.412Z,6.57
2023-01-07T22:24:46.169Z,5.45
2023-01-07T22:27:12.716Z,5.00
2023-01-07T22:29:39.164Z,5.30
2023-01-07T22:32:05.708Z,5.95
2023-01-07T22:34:32.482Z,7.15
2023-01-07T22:37:14.852Z,8.82
2023-01-07T22:39:50.406Z,6.00
2023-01-07T22:42:24.361Z,5.30
2023-01-07T22:45:00.928Z,6.40
2023-01-07T22:47:39.558Z,5.85
2023-01-07T22:50:09.609Z,5.68
2023-01-07T22:52:37.877Z,6.97
2023-01-07T22:55:05.265Z,5.10
2023-01-07T22:57:32.826Z,6.32
2023-01-07T23:00:00.553Z,5.65
2023-01-07T23:02:27.949Z,5.57
2023-01-07T23:05:01.166Z,7.80
2023-01-07T23:07:28.588Z,6.72
2023-01-07T23:09:55.082Z,5.63
2023-01-07T23:12:24.847Z,8.90
2023-01-07T23:14:51.354Z,6.85
2023-01-07T23:17:17.989Z,7.15
2023-01-07T23:19:44.477Z,5.97
2023-01-07T23:22:10.946Z,7.68
2023-01-07T23:24:37.527Z,6.60
2023-01-07T23:27:04.100Z,5.53
2023-01-07T23:29:33.816Z,6.40
2023-01-07T23:32:00.361Z,6.32
2023-01-07T23:34:29.873Z,5.68
2023-01-07T23:36:59.065Z,6.10
2023-01-07T23:39:25.517Z,6.60
2023-01-07T23:41:51.998Z,6.28
2023-01-07T23:44:18.542Z,6.13
2023-01-07T23:46:45.797Z,6.03
2023-01-07T23:49:12.487Z,7.10
2023-01-07T23:51:42.152Z,6.05
2023-01-07T23:54:08.981Z,5.78
2023-01-07T23:56:35.526Z,5.88
2023-01-07T23:59:03.172Z,7.25
